Time;durP1;ratioP1;P1;durP2;ratioP2;P2;SDS_P1;SDS_P2;PMS_P1;PMS_P2;Temp;Humidity;BMP_temperature;BMP_pressure;BME280_temperature;BME280_humidity;BME280_pressure;Samples;Min_cycle;Max_cycle;Signal;HPM_P1;HPM_P2
2021/12/03 00:01:14;;;;;;;;;;;;;;;4.87;68.73;98949.34;6259433;22;1362;-96
2021/12/03 00:03:41;;;;;;;;;;;;;;;4.89;68.58;98941.13;6260292;22;1307;-96
2021/12/03 00:06:07;;;;;;;;;;;;;;;4.88;68.48;98943.00;6260342;22;1151;-96
2021/12/03 00:08:34;;;;;;;;;;;;;;;4.91;68.76;98939.88;6260405;22;1345;-96
2021/12/03 00:11:02;;;;;;;;;;;;;;;4.90;68.43;98938.22;6260850;22;1999;-96
2021/12/03 00:13:29;;;;;;;;;;;;;;;4.88;68.58;98935.00;6259902;22;1249;-96
2021/12/03 00:15:56;;;;;;;;;;;;;;;4.87;68.60;98940.53;6260600;22;1242;-96
2021/12/03 00:18:23;;;;;;;;;;;;;;;4.89;68.52;98955.28;6260692;22;1178;-96
2021/12/03 00:20:50;;;;;;;;;;;;;;;4.92;68.43;98954.03;6260408;22;1393;-96
2021/12/03 00:23:16;;;;;;;;;;;;;;;4.90;68.41;98950.75;6259233;22;1424;-96
2021/12/03 00:25:43;;;;;;;;;;;;;;;4.90;68.40;98954.25;6259217;22;1240;-96
2021/12/03 00:28:10;;;;;;;;;;;;;;;4.90;68.64;98956.09;6235126;23;1264;-96
2021/12/03 00:30:37;;;;;;;;;;;;;;;4.89;68.40;98968.63;6230065;23;1938;-96
2021/12/03 00:33:03;;;;;;;;;;;;;;;4.90;68.50;98967.59;6231086;23;1293;-96
2021/12/03 00:35:30;;;;;;;;;;;;;;;4.93;68.52;98961.81;6229165;23;1231;-96
2021/12/03 00:37:57;;;;;;;;;;;;;;;4.89;68.51;98955.28;6229581;23;1207;-96
2021/12/03 00:40:23;;;;;;;;;;;;;;;4.91;68.51;98963.91;6228633;23;1185;-96
2021/12/03 00:42:50;;;;;;;;;;;;;;;4.91;68.51;98969.22;6228523;23;1290;-96
2021/12/03 00:45:16;;;;;;;;;;;;;;;4.91;68.34;98965.72;6230273;23;1439;-96
2021/12/03 00:47:43;;;;;;;;;;;;;;;4.89;68.30;98968.63;6231221;23;1326;-96
2021/12/03 00:50:10;;;;;;;;;;;;;;;4.89;68.26;98973.97;6223226;23;1933;-96
2021/12/03 00:52:36;;;;;;;;;;;;;;;4.91;68.49;98976.41;6224080;23;1242;-96
2021/12/03 00:55:03;;;;;;;;;;;;;;;4.89;68.57;98973.16;6224710;23;1416;-96
2021/12/03 00:57:29;;;;;;;;;;;;;;;4.89;68.36;98975.81;6224466;23;1179;-96
2021/12/03 00:59:56;;;;;;;;;;;;;;;4.89;68.43;98983.81;6224034;23;1160;-96
2021/12/03 01:02:23;;;;;;;;;;;;;;;4.91;68.35;98974.56;6224360;23;1274;-96
2021/12/03 01:04:49;;;;;;;;;;;;;;;4.90;68.33;98969.44;6226357;23;1302;-96
2021/12/03 01:07:16;;;;;;;;;;;;;;;4.89;68.38;98975.81;6225775;23;1374;-96
2021/12/03 01:09:42;;;;;;;;;;;;;;;4.89;68.51;98986.50;6226035;23;1955;-96
2021/12/03 01:12:09;;;;;;;;;;;;;;;4.89;68.41;98981.16;6225030;23;1179;-96
2021/12/03 01:14:36;;;;;;;;;;;;;;;4.89;68.42;98986.50;6225605;23;1310;-96
2021/12/03 01:17:02;;;;;;;;;;;;;;;4.88;68.43;98991.03;6227187;23;1227;-96
2021/12/03 01:19:29;;;;;;;;;;;;;;;4.90;68.47;98998.78;6227622;23;1295;-96
2021/12/03 01:21:55;;;;;;;;;;;;;;;4.89;68.32;98999.84;6226716;23;1321;-96
2021/12/03 01:24:22;;;;;;;;;;;;;;;4.86;68.44;99009.09;6226145;23;1338;-96
2021/12/03 01:26:53;;;;;;;;;;;;;;;4.88;68.27;99015.03;6234678;22;1211;-96
2021/12/03 01:29:20;;;;;;;;;;;;;;;4.89;68.32;99021.97;6257332;22;1175;-96
2021/12/03 01:31:47;;;;;;;;;;;;;;;4.88;68.42;99024.84;6257884;22;1909;-96
2021/12/03 01:34:14;;;;;;;;;;;;;;;4.89;68.54;99021.19;6257864;22;1313;-96
2021/12/03 01:36:41;;;;;;;;;;;;;;;4.87;68.41;99025.91;6257125;22;1270;-96
2021/12/03 01:39:07;;;;;;;;;;;;;;;4.90;68.22;99028.94;6257541;22;1244;-96
2021/12/03 01:41:34;;;;;;;;;;;;;;;4.89;68.30;99029.19;6257293;22;1331;-96
2021/12/03 01:44:02;;;;;;;;;;;;;;;4.89;68.19;99037.19;6257433;22;1220;-96
2021/12/03 01:46:29;;;;;;;;;;;;;;;4.88;68.36;99040.88;6257813;22;1203;-96
2021/12/03 01:48:56;;;;;;;;;;;;;;;4.87;68.20;99037.38;6258749;22;1174;-96
2021/12/03 01:51:23;;;;;;;;;;;;;;;4.87;68.28;99042.72;6257282;22;1900;-96
2021/12/03 01:53:49;;;;;;;;;;;;;;;4.89;68.15;99045.19;6258022;22;1226;-96
2021/12/03 01:56:16;;;;;;;;;;;;;;;4.86;68.35;99050.97;6257849;22;1381;-96
2021/12/03 01:58:42;;;;;;;;;;;;;;;4.87;68.50;99044.56;6258403;22;1276;-96
2021/12/03 02:01:09;;;;;;;;;;;;;;;4.84;68.44;99047.69;6256800;22;1447;-96
2021/12/03 02:03:36;;;;;;;;;;;;;;;4.80;68.38;99043.84;6258518;22;1197;-96
2021/12/03 02:06:02;;;;;;;;;;;;;;;4.81;68.56;99051.59;6258156;22;1295;-96
2021/12/03 02:08:29;;;;;;;;;;;;;;;4.83;68.52;99049.53;6259003;22;1247;-96
2021/12/03 02:10:56;;;;;;;;;;;;;;;4.77;68.42;99045.91;6257918;22;1881;-96
2021/12/03 02:13:22;;;;;;;;;;;;;;;4.79;68.37;99051.00;6256482;22;1287;-96
2021/12/03 02:15:49;;;;;;;;;;;;;;;4.80;68.38;99044.66;6257968;22;1188;-96
2021/12/03 02:18:16;;;;;;;;;;;;;;;4.81;68.47;99056.94;6258688;22;1176;-96
2021/12/03 02:20:42;;;;;;;;;;;;;;;4.80;68.46;99051.84;6257218;22;1361;-96
2021/12/03 02:23:09;;;;;;;;;;;;;;;4.80;68.26;99047.31;6257863;22;1239;-96
2021/12/03 02:25:36;;;;;;;;;;;;;;;4.77;68.55;99048.56;6257403;22;1278;-96
2021/12/03 02:28:02;;;;;;;;;;;;;;;4.78;68.45;99054.72;6252663;23;1487;-96
2021/12/03 02:30:29;;;;;;;;;;;;;;;4.81;68.54;99051.59;6277229;22;1920;-96
2021/12/03 02:32:55;;;;;;;;;;;;;;;4.82;68.19;99058.56;6284298;22;1453;-96
2021/12/03 02:35:22;;;;;;;;;;;;;;;4.84;68.22;99063.69;6257023;22;1245;-96
2021/12/03 02:37:49;;;;;;;;;;;;;;;4.82;68.43;99060.41;6257681;22;1362;-96
2021/12/03 02:40:15;;;;;;;;;;;;;;;4.83;68.35;99072.75;6282624;22;1250;-96
2021/12/03 02:42:42;;;;;;;;;;;;;;;4.82;68.39;99066.56;6282295;22;1352;-96
2021/12/03 02:45:08;;;;;;;;;;;;;;;4.83;68.12;99070.88;6283215;22;1350;-96
2021/12/03 02:47:35;;;;;;;;;;;;;;;4.83;68.32;99070.88;6284037;22;1186;-96
2021/12/03 02:50:02;;;;;;;;;;;;;;;4.86;68.25;99069.63;6282442;22;1949;-96
2021/12/03 02:52:29;;;;;;;;;;;;;;;4.83;68.24;99059.41;6283847;22;1257;-96
2021/12/03 02:54:55;;;;;;;;;;;;;;;4.82;68.27;99066.56;6278698;22;1300;-96
2021/12/03 02:57:22;;;;;;;;;;;;;;;4.78;68.33;99060.84;6278594;22;1325;-96
2021/12/03 02:59:48;;;;;;;;;;;;;;;4.80;68.28;99065.97;6278822;22;1377;-96
2021/12/03 03:02:15;;;;;;;;;;;;;;;4.81;68.33;99064.94;6279020;22;1226;-96
2021/12/03 03:04:42;;;;;;;;;;;;;;;4.79;68.36;99061.66;6279227;22;1228;-96
2021/12/03 03:07:08;;;;;;;;;;;;;;;4.82;68.16;99068.41;6253991;22;1339;-96
2021/12/03 03:09:35;;;;;;;;;;;;;;;4.78;68.30;99071.53;6279250;22;1534;-96
2021/12/03 03:12:02;;;;;;;;;;;;;;;4.78;68.27;99066.19;6280442;22;1877;-96
2021/12/03 03:14:28;;;;;;;;;;;;;;;4.80;68.22;99074.00;6279856;22;1195;-96
2021/12/03 03:16:55;;;;;;;;;;;;;;;4.79;68.35;99075.00;6280684;22;1273;-96
2021/12/03 03:19:21;;;;;;;;;;;;;;;4.80;68.31;99076.66;6280527;22;1295;-96
2021/12/03 03:21:48;;;;;;;;;;;;;;;4.83;68.12;99067.41;6280606;22;1245;-96
2021/12/03 03:24:15;;;;;;;;;;;;;;;4.79;68.18;99075.00;6280310;22;1202;-96
2021/12/03 03:26:42;;;;;;;;;;;;;;;4.80;68.19;99074.00;6280139;22;1183;-96
2021/12/03 03:29:08;;;;;;;;;;;;;;;4.82;67.95;99068.41;6255165;22;1293;-96
2021/12/03 03:31:35;;;;;;;;;;;;;;;4.81;68.06;99078.28;6254823;22;1950;-96
2021/12/03 03:34:01;;;;;;;;;;;;;;;4.81;68.17;99075.63;6255848;22;1374;-96
2021/12/03 03:36:28;;;;;;;;;;;;;;;4.80;68.42;99079.31;6256079;22;1333;-96
2021/12/03 03:38:54;;;;;;;;;;;;;;;4.76;68.39;99072.78;6255186;22;1401;-96
2021/12/03 03:41:21;;;;;;;;;;;;;;;4.75;68.32;99074.63;6254373;22;1351;-96
2021/12/03 03:43:48;;;;;;;;;;;;;;;4.75;68.37;99077.28;6255350;22;1385;-96
2021/12/03 03:46:15;;;;;;;;;;;;;;;4.79;68.22;99077.66;6255731;22;1583;-96
2021/12/03 03:48:41;;;;;;;;;;;;;;;4.78;68.16;99084.06;6256311;22;1325;-96
2021/12/03 03:51:08;;;;;;;;;;;;;;;4.73;68.38;99070.53;6256371;22;1901;-96
2021/12/03 03:53:35;;;;;;;;;;;;;;;4.74;68.40;99075.69;6256798;22;1262;-96
2021/12/03 03:56:02;;;;;;;;;;;;;;;4.72;68.35;99072.41;6255113;22;1219;-96
2021/12/03 03:58:29;;;;;;;;;;;;;;;4.76;68.23;99068.28;6256430;22;1273;-96
2021/12/03 04:00:55;;;;;;;;;;;;;;;4.72;68.36;99074.25;6256000;22;1310;-96
2021/12/03 04:03:22;;;;;;;;;;;;;;;4.72;68.32;99077.72;6256302;22;1428;-96
2021/12/03 04:05:48;;;;;;;;;;;;;;;4.74;68.22;99077.53;6256339;22;1293;-96
2021/12/03 04:08:15;;;;;;;;;;;;;;;4.69;68.37;99070.16;6256892;22;1381;-96
2021/12/03 04:10:42;;;;;;;;;;;;;;;4.70;68.23;99077.13;6254693;22;1972;-96
2021/12/03 04:13:08;;;;;;;;;;;;;;;4.68;68.51;99067.72;6256119;22;1416;-96
2021/12/03 04:15:35;;;;;;;;;;;;;;;4.67;68.53;99068.75;6255805;22;1175;-96
2021/12/03 04:18:01;;;;;;;;;;;;;;;4.70;68.12;99070.97;6257992;22;1258;-96
2021/12/03 04:20:28;;;;;;;;;;;;;;;4.72;68.15;99075.06;6257602;22;1179;-96
2021/12/03 04:22:54;;;;;;;;;;;;;;;4.74;68.20;99077.53;6284997;22;1279;-96
2021/12/03 04:25:21;;;;;;;;;;;;;;;4.71;68.07;99065.44;6257614;22;1492;-96
2021/12/03 04:27:47;;;;;;;;;;;;;;;4.74;68.28;99082.88;6258912;22;1204;-96
2021/12/03 04:30:14;;;;;;;;;;;;;;;4.73;68.00;99078.53;6257972;22;1946;-96
2021/12/03 04:32:41;;;;;;;;;;;;;;;4.76;68.14;99081.63;6258203;22;1255;-96
2021/12/03 04:35:07;;;;;;;;;;;;;;;4.77;67.94;99083.25;6257476;22;1181;-96
2021/12/03 04:37:34;;;;;;;;;;;;;;;4.73;68.19;99071.34;6258829;22;1159;-96
2021/12/03 04:40:00;;;;;;;;;;;;;;;4.75;68.16;99071.16;6256578;22;1147;-96
2021/12/03 04:42:27;;;;;;;;;;;;;;;4.75;68.17;99079.16;6258571;22;1286;-96
2021/12/03 04:44:54;;;;;;;;;;;;;;;4.72;68.12;99068.91;6257809;22;1224;-96
2021/12/03 04:47:20;;;;;;;;;;;;;;;4.71;68.17;99073.44;6258459;22;1231;-96
2021/12/03 04:49:47;;;;;;;;;;;;;;;4.75;67.95;99076.47;6283242;22;1403;-96
2021/12/03 04:52:13;;;;;;;;;;;;;;;4.72;68.02;99069.72;6259121;22;2279;-96
2021/12/03 04:54:40;;;;;;;;;;;;;;;4.74;68.04;99066.84;6283879;22;1236;-96
2021/12/03 04:57:07;;;;;;;;;;;;;;;4.74;68.04;99051.66;6254368;22;1148;-96
2021/12/03 04:59:34;;;;;;;;;;;;;;;4.72;68.08;99045.72;6254251;22;1278;-96
2021/12/03 05:02:01;;;;;;;;;;;;;;;4.72;67.87;99043.06;6255190;22;1349;-96
2021/12/03 05:04:35;;;;;;;;;;;;;;;4.69;67.93;99056.03;6256529;22;1220;-96
2021/12/03 05:07:15;;;;;;;;;;;;;;;4.71;68.20;99053.97;6256924;22;1306;-96
2021/12/03 05:09:42;;;;;;;;;;;;;;;4.71;68.13;99062.78;6281279;22;1324;-96
2021/12/03 05:12:09;;;;;;;;;;;;;;;4.71;68.04;99061.97;6255014;22;1909;-96
2021/12/03 05:14:35;;;;;;;;;;;;;;;4.73;67.98;99057.22;6281507;22;1409;-96
2021/12/03 05:17:02;;;;;;;;;;;;;;;4.71;68.17;99052.09;6255497;22;1252;-96
2021/12/03 05:19:29;;;;;;;;;;;;;;;4.70;68.00;99058.44;6254929;22;1331;-96
2021/12/03 05:21:55;;;;;;;;;;;;;;;4.70;67.83;99060.31;6255949;22;1180;-96
2021/12/03 05:24:22;;;;;;;;;;;;;;;4.72;67.93;99066.25;6256237;22;1268;-96
2021/12/03 05:26:48;;;;;;;;;;;;;;;4.73;67.74;99065.22;6250428;23;1325;-96
2021/12/03 05:29:17;;;;;;;;;;;;;;;4.68;68.12;99081.88;6225009;23;1277;-96
2021/12/03 05:31:44;;;;;;;;;;;;;;;4.69;68.07;99072.03;6225992;23;1881;-96
2021/12/03 05:34:13;;;;;;;;;;;;;;;4.68;68.05;99075.72;6225529;23;1131;-96
2021/12/03 05:36:39;;;;;;;;;;;;;;;4.68;68.03;99075.72;6226303;23;1230;-96
2021/12/03 05:39:06;;;;;;;;;;;;;;;4.67;67.96;99071.41;6226240;23;1397;-96
2021/12/03 05:41:32;;;;;;;;;;;;;;;4.68;68.19;99078.41;6225641;23;1314;-96
2021/12/03 05:43:59;;;;;;;;;;;;;;;4.66;68.23;99086.59;6225751;23;1151;-96
2021/12/03 05:46:25;;;;;;;;;;;;;;;4.69;68.13;99096.03;6226836;23;1299;-96
2021/12/03 05:48:52;;;;;;;;;;;;;;;4.67;67.97;99106.09;6226834;23;1171;-96
2021/12/03 05:51:18;;;;;;;;;;;;;;;4.65;68.05;99095.66;6225467;23;1942;-96
2021/12/03 05:53:45;;;;;;;;;;;;;;;4.66;67.89;99093.78;6226888;23;1246;-96
2021/12/03 05:56:12;;;;;;;;;;;;;;;4.63;68.26;99100.38;6226344;23;1583;-96
2021/12/03 05:58:38;;;;;;;;;;;;;;;4.63;68.17;99104.91;6227443;23;1270;-96
2021/12/03 06:01:05;;;;;;;;;;;;;;;4.62;68.30;99100.56;6224997;23;1148;-96
2021/12/03 06:03:32;;;;;;;;;;;;;;;4.57;68.33;99100.44;6227510;23;1430;-96
2021/12/03 06:05:58;;;;;;;;;;;;;;;4.59;68.17;99103.66;6225881;23;1401;-96
2021/12/03 06:08:25;;;;;;;;;;;;;;;4.65;68.05;99100.97;6227156;23;1268;-96
2021/12/03 06:10:52;;;;;;;;;;;;;;;4.66;68.06;99104.47;6225844;23;1881;-96
2021/12/03 06:13:18;;;;;;;;;;;;;;;4.62;68.21;99100.56;6226832;23;1360;-96
2021/12/03 06:15:45;;;;;;;;;;;;;;;4.63;67.98;99100.38;6226740;23;1257;-96
2021/12/03 06:18:11;;;;;;;;;;;;;;;4.68;67.77;99107.75;6226744;23;1239;-96
2021/12/03 06:20:38;;;;;;;;;;;;;;;4.66;67.86;99112.47;6225993;23;1179;-96
2021/12/03 06:23:04;;;;;;;;;;;;;;;4.63;67.96;99110.22;6227075;23;1427;-96
2021/12/03 06:25:31;;;;;;;;;;;;;;;4.64;67.93;99125.19;6226781;23;1539;-96
2021/12/03 06:27:58;;;;;;;;;;;;;;;4.66;67.87;99121.28;6247217;22;1372;-96
2021/12/03 06:30:25;;;;;;;;;;;;;;;4.64;67.76;99122.53;6256308;22;1147;-96
2021/12/03 06:32:52;;;;;;;;;;;;;;;4.63;67.97;99115.56;6257916;22;1944;-96
2021/12/03 06:35:19;;;;;;;;;;;;;;;4.61;67.96;99121.09;6255627;22;1282;-96
2021/12/03 06:37:45;;;;;;;;;;;;;;;4.61;68.13;99128.28;6256754;22;1290;-96
2021/12/03 06:40:12;;;;;;;;;;;;;;;4.61;68.23;99129.09;6255661;22;1151;-96
2021/12/03 06:42:38;;;;;;;;;;;;;;;4.59;67.98;99127.66;6255617;22;1254;-96
2021/12/03 06:45:06;;;;;;;;;;;;;;;4.61;67.98;99144.28;6255422;22;1211;-96
2021/12/03 06:47:32;;;;;;;;;;;;;;;4.63;67.88;99144.91;6256348;22;1354;-96
2021/12/03 06:49:59;;;;;;;;;;;;;;;4.61;67.99;99142.44;6256474;22;1175;-96
2021/12/03 06:52:26;;;;;;;;;;;;;;;4.64;67.64;99144.66;6256891;22;1950;-96
2021/12/03 06:54:56;;;;;;;;;;;;;;;4.58;68.08;99142.88;6260230;22;1471;-96
2021/12/03 06:57:23;;;;;;;;;;;;;;;4.53;68.24;99143.53;6253879;22;1262;-96
2021/12/03 06:59:49;;;;;;;;;;;;;;;4.52;68.25;99149.88;6252970;22;1303;-96
2021/12/03 07:02:17;;;;;;;;;;;;;;;4.53;68.11;99138.19;6254022;22;1242;-96
2021/12/03 07:04:44;;;;;;;;;;;;;;;4.54;68.07;99152.34;6254884;22;1180;-96
2021/12/03 07:07:10;;;;;;;;;;;;;;;4.54;68.17;99147.00;6254044;22;1394;-96
2021/12/03 07:09:37;;;;;;;;;;;;;;;4.56;68.00;99158.28;6254799;22;1187;-96
2021/12/03 07:12:04;;;;;;;;;;;;;;;4.57;67.97;99159.09;6253768;22;1885;-96
2021/12/03 07:14:31;;;;;;;;;;;;;;;4.55;67.93;99160.09;6254076;22;1291;-96
2021/12/03 07:16:59;;;;;;;;;;;;;;;4.55;68.09;99162.78;6255762;22;1242;-96
2021/12/03 07:19:25;;;;;;;;;;;;;;;4.57;67.87;99156.44;6254460;22;1143;-96
2021/12/03 07:21:53;;;;;;;;;;;;;;;4.59;67.85;99163.19;6255749;22;1442;-96
2021/12/03 07:24:20;;;;;;;;;;;;;;;4.58;67.85;99164.19;6252988;22;1308;-96
2021/12/03 07:26:46;;;;;;;;;;;;;;;4.58;67.75;99161.53;6253762;22;1307;-96
2021/12/03 07:29:13;;;;;;;;;;;;;;;4.56;67.84;99168.94;6254362;22;1456;-96
2021/12/03 07:31:39;;;;;;;;;;;;;;;4.55;67.87;99162.78;6254957;22;1951;-96
2021/12/03 07:34:06;;;;;;;;;;;;;;;4.57;67.79;99156.44;6254809;22;1302;-96
2021/12/03 07:36:33;;;;;;;;;;;;;;;4.54;67.82;99169.16;6255217;22;1274;-96
2021/12/03 07:38:59;;;;;;;;;;;;;;;4.56;67.70;99168.94;6254797;22;1401;-96
2021/12/03 07:41:26;;;;;;;;;;;;;;;4.57;67.71;99169.75;6255261;22;1372;-96
2021/12/03 07:43:53;;;;;;;;;;;;;;;4.58;67.85;99176.72;6256238;22;1312;-96
2021/12/03 07:46:20;;;;;;;;;;;;;;;4.57;67.77;99175.09;6260626;22;1270;-96
2021/12/03 07:48:48;;;;;;;;;;;;;;;4.52;67.83;99173.88;6256196;22;1299;-96
2021/12/03 07:51:15;;;;;;;;;;;;;;;4.53;67.78;99174.72;6255135;22;1936;-96
2021/12/03 07:53:42;;;;;;;;;;;;;;;4.54;67.80;99173.66;6256704;22;1171;-96
2021/12/03 07:56:09;;;;;;;;;;;;;;;4.55;67.88;99180.63;6256873;22;1422;-96
2021/12/03 07:58:36;;;;;;;;;;;;;;;4.54;67.78;99185.16;6258505;22;1287;-96
2021/12/03 08:01:02;;;;;;;;;;;;;;;4.56;67.71;99182.28;6257180;22;1167;-96
2021/12/03 08:03:29;;;;;;;;;;;;;;;4.53;67.83;99186.19;6257847;22;1398;-96
2021/12/03 08:05:59;;;;;;;;;;;;;;;4.55;67.74;99192.09;6257622;22;1442;-96
2021/12/03 08:08:26;;;;;;;;;;;;;;;4.53;67.64;99191.53;6257930;22;1273;-96
2021/12/03 08:10:55;;;;;;;;;;;;;;;4.52;67.85;99189.88;6257840;22;1300;-96
2021/12/03 08:13:21;;;;;;;;;;;;;;;4.53;67.66;99193.38;6258638;22;1946;-96
2021/12/03 08:15:48;;;;;;;;;;;;;;;4.53;67.73;99196.84;6256646;22;1293;-96
2021/12/03 08:18:15;;;;;;;;;;;;;;;4.52;67.79;99195.19;6258451;22;1277;-96
2021/12/03 08:20:41;;;;;;;;;;;;;;;4.53;67.69;99191.53;6256999;22;1206;-96
2021/12/03 08:23:08;;;;;;;;;;;;;;;4.52;67.82;99194.38;6259119;22;1149;-96
2021/12/03 08:25:35;;;;;;;;;;;;;;;4.50;67.94;99197.28;6257509;22;1262;-96
2021/12/03 08:28:01;;;;;;;;;;;;;;;4.49;68.01;99194.81;6240539;23;1482;-96
2021/12/03 08:30:29;;;;;;;;;;;;;;;4.50;67.90;99194.63;6227003;23;1156;-96
2021/12/03 08:32:55;;;;;;;;;;;;;;;4.48;67.81;99193.19;6227626;23;1960;-96
2021/12/03 08:35:22;;;;;;;;;;;;;;;4.48;68.00;99194.00;6226561;23;1171;-96
2021/12/03 08:37:50;;;;;;;;;;;;;;;4.50;67.98;99183.09;6227269;23;1365;-96
2021/12/03 08:40:17;;;;;;;;;;;;;;;4.46;67.97;99198.72;6227294;23;1389;-96
2021/12/03 08:42:43;;;;;;;;;;;;;;;4.44;67.95;99191.97;6227703;23;1377;-96
2021/12/03 08:45:11;;;;;;;;;;;;;;;4.44;68.16;99199.97;6226699;23;1409;-96
2021/12/03 08:47:39;;;;;;;;;;;;;;;4.45;68.11;99205.09;6227879;23;1217;-96
2021/12/03 08:50:10;;;;;;;;;;;;;;;4.47;67.73;99196.88;6227346;23;1446;-96
2021/12/03 08:52:53;;;;;;;;;;;;;;;4.45;67.94;99193.63;6227338;23;1905;-96
2021/12/03 08:55:20;;;;;;;;;;;;;;;4.48;67.85;99202.00;6228791;23;1276;-96
2021/12/03 08:57:46;;;;;;;;;;;;;;;4.47;67.73;99205.69;6230533;23;1219;-96
2021/12/03 09:00:13;;;;;;;;;;;;;;;4.50;67.82;99207.09;6223987;23;1214;-96
2021/12/03 09:02:40;;;;;;;;;;;;;;;4.50;67.63;99205.28;6223926;23;1299;-96
2021/12/03 09:05:07;;;;;;;;;;;;;;;4.49;67.83;99200.97;6223827;23;1402;-96
2021/12/03 09:07:33;;;;;;;;;;;;;;;4.49;67.77;99203.63;6224120;23;1161;-96
2021/12/03 09:10:00;;;;;;;;;;;;;;;4.48;67.83;99203.84;6223442;23;1284;-96
2021/12/03 09:12:27;;;;;;;;;;;;;;;4.47;67.90;99207.53;6224421;23;1947;-96
2021/12/03 09:14:55;;;;;;;;;;;;;;;4.48;67.78;99209.19;6224605;23;1154;-96
2021/12/03 09:17:32;;;;;;;;;;;;;;;4.47;67.77;99203.03;6225028;23;1260;-96
2021/12/03 09:20:05;;;;;;;;;;;;;;;4.47;67.59;99204.88;6225010;23;1408;-96
2021/12/03 09:22:38;;;;;;;;;;;;;;;4.48;67.60;99202.00;6226522;23;1238;-96
2021/12/03 09:25:05;;;;;;;;;;;;;;;4.48;67.57;99204.66;6224788;23;1310;-96
2021/12/03 09:27:32;;;;;;;;;;;;;;;4.48;67.58;99202.00;6236640;22;1347;-96
2021/12/03 09:29:59;;;;;;;;;;;;;;;4.49;67.66;99206.28;6255500;22;1160;-96
2021/12/03 09:32:28;;;;;;;;;;;;;;;4.45;68.00;99202.44;6257499;22;1901;-96
2021/12/03 09:34:55;;;;;;;;;;;;;;;4.45;67.88;99206.94;6256947;22;1178;-96
2021/12/03 09:37:22;;;;;;;;;;;;;;;4.46;67.77;99204.06;6256683;22;1239;-96
2021/12/03 09:39:48;;;;;;;;;;;;;;;4.47;67.84;99196.88;6256081;22;1239;-96
2021/12/03 09:42:18;;;;;;;;;;;;;;;4.46;67.65;99197.91;6256478;22;1251;-96
2021/12/03 09:44:45;;;;;;;;;;;;;;;4.46;67.76;99195.25;6257096;22;1348;-96
2021/12/03 09:47:12;;;;;;;;;;;;;;;4.43;67.89;99198.34;6258499;22;1368;-96
2021/12/03 09:49:39;;;;;;;;;;;;;;;4.44;67.91;99194.63;6258065;22;1207;-96
2021/12/03 09:52:16;;;;;;;;;;;;;;;4.42;67.80;99191.38;6257995;22;1901;-96
2021/12/03 09:54:44;;;;;;;;;;;;;;;4.44;67.79;99195.47;6256915;22;1388;-96
2021/12/03 09:57:12;;;;;;;;;;;;;;;4.45;67.75;99190.94;6258075;22;1194;-96
2021/12/03 10:02:49;;;;;;;;;;;;;;;4.44;67.68;99190.13;6259735;22;1242;-96
2021/12/03 10:13:36;;;;;;;;;;;;;;;4.43;67.78;99179.66;6260082;22;1873;-96
2021/12/03 10:16:07;;;;;;;;;;;;;;;4.43;67.88;99187.66;6260524;22;1335;-96
2021/12/03 10:18:39;;;;;;;;;;;;;;;4.44;67.62;99192.81;6263447;22;1293;-96
2021/12/03 10:21:14;;;;;;;;;;;;;;;4.43;67.69;99183.16;6260514;22;1370;-96
2021/12/03 10:29:28;;;;;;;;;;;;;;;4.41;67.96;99179.91;6169966;23;1178;-96
2021/12/03 10:35:23;;;;;;;;;;;;;;;4.45;67.65;99180.28;6237178;22;1559;-96
2021/12/03 10:38:15;;;;;;;;;;;;;;;4.42;67.80;99178.84;6261105;22;1302;-96
2021/12/03 10:46:33;;;;;;;;;;;;;;;4.43;67.63;99196.47;6206040;22;1450;-96
2021/12/03 10:49:10;;;;;;;;;;;;;;;4.44;67.78;99175.97;6260485;22;1259;-96
2021/12/03 10:51:53;;;;;;;;;;;;;;;4.44;67.93;99175.97;6259334;22;1201;-96
2021/12/03 10:54:27;;;;;;;;;;;;;;;4.43;67.79;99167.16;6259973;22;1267;-96
2021/12/03 10:57:10;;;;;;;;;;;;;;;4.40;67.92;99159.59;6259234;22;1393;-96
2021/12/03 11:30:45;;;;;;;;;;;;;;;4.43;67.87;99175.16;5084726;28;1388;-91
2021/12/03 12:20:43;;;;;;;;;;;;;;;4.51;67.85;99142.09;5070209;28;1169;-90
2021/12/03 14:07:45;;;;;;;;;;;;;;;4.64;67.89;99125.19;5081278;28;1584;-89
2021/12/03 14:10:52;;;;;;;;;;;;;;;4.60;67.88;99118.66;5099916;28;2871;-90
2021/12/03 14:38:22;;;;;;;;;;;;;;;4.62;68.05;99111.25;5235788;22;2190;-90
2021/12/03 14:43:51;;;;;;;;;;;;;;;4.63;67.99;99105.72;5056758;28;1300;-90
2021/12/03 14:49:25;;;;;;;;;;;;;;;4.64;67.91;99106.53;5071321;28;4531;-90
2021/12/03 14:52:00;;;;;;;;;;;;;;;4.63;68.11;99108.38;5056845;28;1317;-90
2021/12/03 14:54:34;;;;;;;;;;;;;;;4.64;68.16;99111.84;5055655;28;1947;-91
2021/12/03 14:57:01;;;;;;;;;;;;;;;4.64;67.99;99106.53;5048031;28;2242;-88
2021/12/03 14:59:30;;;;;;;;;;;;;;;4.65;68.13;99108.97;5069123;28;2370;-91
2021/12/03 15:02:00;;;;;;;;;;;;;;;4.64;68.09;99112.66;5053911;28;1310;-90
2021/12/03 15:04:47;;;;;;;;;;;;;;;4.64;67.96;99112.66;5064349;28;2321;-91
2021/12/03 15:07:16;;;;;;;;;;;;;;;4.65;67.96;99106.31;5046434;28;1406;-90
2021/12/03 15:09:44;;;;;;;;;;;;;;;4.65;68.00;99111.66;5054729;28;1659;-91
2021/12/03 15:12:43;;;;;;;;;;;;;;;4.64;68.06;99111.84;5038723;28;1927;-90
2021/12/03 15:26:53;;;;;;;;;;;;;;;4.68;67.96;99113.06;5055198;28;1420;-91
2021/12/03 15:32:05;;;;;;;;;;;;;;;4.66;67.90;99107.13;5108794;28;1234;-90
2021/12/03 15:34:53;;;;;;;;;;;;;;;4.66;67.87;99101.78;5108522;28;4288;-89
2021/12/03 15:37:42;;;;;;;;;;;;;;;4.67;67.74;99103.41;5104348;28;1930;-90
2021/12/03 15:40:22;;;;;;;;;;;;;;;4.68;67.82;99105.06;5120062;28;2276;-90
2021/12/03 15:56:56;;;;;;;;;;;;;;;4.67;68.05;99098.09;5011041;28;1299;-91
2021/12/03 16:04:54;;;;;;;;;;;;;;;4.66;67.88;99097.28;5105800;28;2302;-90
2021/12/03 16:07:40;;;;;;;;;;;;;;;4.66;68.02;99097.28;5109159;28;4424;-90
2021/12/03 16:10:15;;;;;;;;;;;;;;;4.65;68.00;99094.84;5100105;28;1725;-90
2021/12/03 16:12:51;;;;;;;;;;;;;;;4.68;67.88;99097.06;5091345;28;1702;-89
2021/12/03 16:15:31;;;;;;;;;;;;;;;4.65;68.00;99100.16;5100152;28;2375;-90
2021/12/03 16:23:47;;;;;;;;;;;;;;;4.65;68.14;99100.16;5041659;28;1307;-90
2021/12/03 16:26:45;;;;;;;;;;;;;;;4.64;68.13;99098.50;5083047;28;4447;-90
2021/12/03 16:45:55;;;;;;;;;;;;;;;4.61;68.12;99082.94;5064818;28;2003;-89
2021/12/03 16:54:05;;;;;;;;;;;;;;;4.61;68.16;99093.63;5028986;28;1359;-90
2021/12/03 16:56:31;;;;;;;;;;;;;;;4.62;68.05;99077.41;5057055;28;1441;-90
2021/12/03 16:58:59;;;;;;;;;;;;;;;4.61;68.05;99089.09;5065747;28;1977;-91
2021/12/03 17:01:30;;;;;;;;;;;;;;;4.61;68.17;99091.75;5076455;28;2525;-91
2021/12/03 17:04:03;;;;;;;;;;;;;;;4.62;68.13;99089.91;5113012;28;4540;-91
2021/12/03 17:12:17;;;;;;;;;;;;;;;4.61;68.09;99098.94;5046478;28;1387;-90
2021/12/03 17:14:55;;;;;;;;;;;;;;;4.61;68.10;99094.44;5058068;28;2383;-91
2021/12/03 17:47:40;;;;;;;;;;;;;;;4.62;68.13;99097.91;5073783;28;1303;-91
2021/12/03 17:50:23;;;;;;;;;;;;;;;4.60;68.05;99089.31;5066464;28;2721;-91
2021/12/03 17:58:22;;;;;;;;;;;;;;;4.57;68.25;99095.91;5043334;28;1324;-91
2021/12/03 18:00:55;;;;;;;;;;;;;;;4.58;68.09;99091.38;5060248;28;2485;-90
2021/12/03 18:03:28;;;;;;;;;;;;;;;4.58;67.69;99097.53;5056831;28;2095;-91
2021/12/03 18:06:10;;;;;;;;;;;;;;;4.56;68.26;99094.28;5072060;28;2396;-92
2021/12/03 18:08:42;;;;;;;;;;;;;;;4.56;68.28;99094.28;5055709;28;1366;-91
2021/12/03 18:52:16;;;;;;;;;;;;;;;4.59;67.96;99103.66;5061480;28;2200;-90
2021/12/03 18:54:54;;;;;;;;;;;;;;;4.58;68.08;99104.72;5073476;28;1687;-90
2021/12/03 18:57:26;;;;;;;;;;;;;;;4.57;68.04;99111.91;5069314;28;4744;-90
2021/12/03 18:59:55;;;;;;;;;;;;;;;4.59;67.99;99112.53;5053196;28;4158;-90
2021/12/03 19:02:23;;;;;;;;;;;;;;;4.59;67.94;99109.00;5071538;28;4236;-88
2021/12/03 19:04:54;;;;;;;;;;;;;;;4.58;67.89;99108.19;5069668;28;1857;-91
2021/12/03 19:07:24;;;;;;;;;;;;;;;4.62;67.97;99112.09;5063718;28;4303;-89
2021/12/03 19:09:53;;;;;;;;;;;;;;;4.57;67.85;99114.56;5076643;28;2497;-91
2021/12/03 19:12:23;;;;;;;;;;;;;;;4.55;68.07;99119.28;5065302;28;4131;-90
2021/12/03 19:14:52;;;;;;;;;;;;;;;4.57;67.93;99114.56;5064847;28;3882;-89
2021/12/03 19:17:19;;;;;;;;;;;;;;;4.58;67.95;99113.53;5061684;28;1767;-90
2021/12/03 19:19:46;;;;;;;;;;;;;;;4.61;68.03;99117.63;5079530;28;2145;-89
2021/12/03 19:22:14;;;;;;;;;;;;;;;4.61;67.65;99118.44;5073398;28;1195;-89
2021/12/03 19:24:40;;;;;;;;;;;;;;;4.59;67.91;99115.19;5061309;28;2760;-90
2021/12/03 19:27:08;;;;;;;;;;;;;;;4.60;68.05;99110.66;5054150;28;1519;-90
2021/12/03 19:29:35;;;;;;;;;;;;;;;4.59;67.90;99111.69;5057510;28;1688;-89
2021/12/03 19:32:01;;;;;;;;;;;;;;;4.57;68.05;99117.25;5058257;28;4208;-90
2021/12/03 19:34:28;;;;;;;;;;;;;;;4.59;67.96;99115.19;5055756;28;2674;-89
2021/12/03 19:36:55;;;;;;;;;;;;;;;4.58;68.10;99112.72;5054453;28;1144;-90
2021/12/03 19:39:23;;;;;;;;;;;;;;;4.60;67.99;99116.00;5092312;28;4318;-89